Arctic Bay — 9HTD8 — position and weather

sailwx.info

Track history (hours):
 
Tides and Currents Weather Stations Pressure Air Temp Water Temp Dewpoint Dewpoint Depression Visibility Wind Speed Wind Dir Waves Ship Positions

Arctic Bay

Last reported at 2015-Mar-02 18:29 UTC. Time now 2015-Mar-02 20:40 UTC.
Position N 54°18' E 005°12'.

Length 182 m; draft 7.5 m.

Type: Tanker. MMSI: 256396000.

Date/timePositionNaut miles runAvg speedWind from/ knotsBaromVisibWave heightAir tempDewpointWater temp
2015-Mar-02 18:29N 54°18' E 005°12'1313.7
2015-Mar-02 17:33N 54°07' E 005°00'1413.1
2015-Mar-02 16:31N 53°54' E 004°54'1111.6
2015-Mar-02 15:32N 53°42' E 004°52'1212.3
2015-Mar-02 14:34N 53°31' E 004°46'1312.8
2015-Mar-02 13:33N 53°19' E 004°38'1713.2
2015-Mar-02 12:17N 53°04' E 004°25'10912.1
2015-Mar-02 03:17N 51°41' E 002°29'1013.2
2015-Mar-02 02:33N 51°34' E 002°19'1313.1
2015-Mar-02 01:33N 51°23' E 002°07'1312.6
2015-Mar-02 00:33N 51°12' E 001°57'1514.6
2015-Mar-01 23:34N 51°03' E 001°39'5713.3
2015-Mar-01 19:17N 50°26' E 000°31'25913.8
2015-Mar-01 00:33N 48°44' W 005°37'3411.2
2015-Feb-28 21:34N 48°11' W 005°27'1212.2
2015-Feb-28 20:34N 48°01' W 005°15'1312.5
2015-Feb-28 19:33N 47°52' W 005°03'1412.6
2015-Feb-28 18:29N 47°42' W 004°50'7312.3
2015-Feb-28 12:34N 46°47' W 003°39'2411.9
2015-Feb-28 10:34N 46°29' W 003°16'  
2015-Feb-25 19:33N 47°01' W 003°59'1514.8
2015-Feb-25 18:34N 47°12' W 004°13'4314.4
2015-Feb-25 15:34N 47°45' W 004°56'1413.6
2015-Feb-25 14:33N 47°55' W 005°09'1514.8
2015-Feb-25 13:33N 48°06' W 005°24'1514.9
2015-Feb-25 12:33N 48°17' W 005°39'22311.2
2015-Feb-24 16:33N 49°34' W 000°20'1414.0
2015-Feb-24 15:33N 49°28' W 000°01'1211.8
2015-Feb-24 14:33N 49°26' E 000°17'10 9.6
2015-Feb-24 13:32N 49°28' E 000°32'5 0.1
2015-Feb-23 00:11N 49°28' E 000°40'5 8.2
2015-Feb-22 23:32N 49°29' E 000°32'1111.8
2015-Feb-22 22:33N 49°26' E 000°15'1010.2
2015-Feb-22 21:33N 49°28' W 000°01'6 6.3
2015-Feb-22 20:33N 49°29' W 000°10'1 0.5
2015-Feb-22 19:33N 49°30' W 000°11'0 0.1
2015-Feb-22 18:33N 49°29' W 000°11'0 0.0
2015-Feb-22 17:33N 49°29' W 000°11'0 0.0
2015-Feb-22 16:33N 49°29' W 000°11'0 0.1
2015-Feb-22 15:33N 49°30' W 000°11'0 0.1
2015-Feb-22 14:33N 49°30' W 000°11'0 0.1
2015-Feb-22 13:33N 49°29' W 000°11'0 0.0
2015-Feb-22 12:33N 49°29' W 000°11'0 0.0
2015-Feb-22 11:33N 49°29' W 000°11'0 0.0
2015-Feb-22 10:33N 49°29' W 000°11'0 0.1
2015-Feb-22 09:33N 49°29' W 000°11'0 0.1
2015-Feb-22 08:33N 49°29' W 000°11'0 0.1
2015-Feb-22 07:33N 49°29' W 000°11'0 0.1
2015-Feb-22 06:33N 49°29' W 000°11'0 0.1
2015-Feb-22 05:33N 49°29' W 000°11'0 0.0
2015-Feb-22 04:33N 49°29' W 000°11'0 0.0
2015-Feb-22 03:33N 49°29' W 000°11'0 0.1
2015-Feb-22 02:33N 49°29' W 000°11'0 0.1
2015-Feb-22 01:33N 49°29' W 000°11'0 0.1
2015-Feb-22 00:27N 49°29' W 000°11'0 0.0
2015-Feb-21 23:33N 49°29' W 000°11'0 0.0
2015-Feb-21 22:33N 49°29' W 000°11'0 0.1
2015-Feb-21 21:33N 49°29' W 000°11'0 0.1
2015-Feb-21 20:33N 49°29' W 000°11'0 0.1
2015-Feb-21 19:33N 49°29' W 000°11'0 0.1
2015-Feb-21 18:33N 49°29' W 000°11'0 0.0
2015-Feb-21 17:33N 49°29' W 000°11'0 0.0
2015-Feb-21 16:33N 49°29' W 000°11'0 0.0
2015-Feb-21 15:33N 49°29' W 000°11'0 0.1
2015-Feb-21 14:33N 49°29' W 000°11'0 0.1
2015-Feb-21 13:33N 49°29' W 000°11'0 0.1
2015-Feb-21 12:21N 49°29' W 000°11'0 0.1
2015-Feb-21 11:09N 49°29' W 000°11'0 0.0
2015-Feb-21 10:33N 49°29' W 000°11'0 0.0
2015-Feb-21 09:33N 49°29' W 000°11'0 0.1
2015-Feb-21 08:33N 49°29' W 000°11'0 0.1
2015-Feb-21 07:33N 49°29' W 000°11'0 0.1
2015-Feb-21 06:33N 49°29' W 000°11'0 0.0
2015-Feb-21 05:33N 49°29' W 000°11'0 0.0
2015-Feb-21 04:33N 49°29' W 000°11'0 0.0
2015-Feb-21 03:33N 49°29' W 000°11'0 0.1
2015-Feb-21 02:33N 49°29' W 000°11'8 8.5
2015-Feb-21 01:33N 49°36' W 000°19'1512.2
2015-Feb-21 00:17N 49°51' W 000°21'5211.1
2015-Feb-20 19:33N 50°33' E 000°27'1514.5
2015-Feb-20 18:30N 50°41' E 000°48'  
Track history (hours):
 
Tides and Currents Weather Stations Pressure Air Temp Water Temp Dewpoint Dewpoint Depression Visibility Wind Speed Wind Dir Waves Ship Positions

Arctic Bay

Last reported at 2015-Mar-02 18:29 UTC. Time now 2015-Mar-02 20:40 UTC.
Position N 54°18' E 005°12'.

Length 182 m; draft 7.5 m.

Type: Tanker. MMSI: 256396000.

Date/timePositionNaut miles runAvg speedWind from/ knotsBaromVisibWave heightAir tempDewpointWater temp
2015-Mar-02 18:29N 54°18' E 005°12'1313.7
2015-Mar-02 17:33N 54°07' E 005°00'1413.1
2015-Mar-02 16:31N 53°54' E 004°54'1111.6
2015-Mar-02 15:32N 53°42' E 004°52'1212.3
2015-Mar-02 14:34N 53°31' E 004°46'1312.8
2015-Mar-02 13:33N 53°19' E 004°38'1713.2
2015-Mar-02 12:17N 53°04' E 004°25'10912.1
2015-Mar-02 03:17N 51°41' E 002°29'1013.2
2015-Mar-02 02:33N 51°34' E 002°19'1313.1
2015-Mar-02 01:33N 51°23' E 002°07'1312.6
2015-Mar-02 00:33N 51°12' E 001°57'1514.6
2015-Mar-01 23:34N 51°03' E 001°39'5713.3
2015-Mar-01 19:17N 50°26' E 000°31'25913.8
2015-Mar-01 00:33N 48°44' W 005°37'3411.2
2015-Feb-28 21:34N 48°11' W 005°27'1212.2
2015-Feb-28 20:34N 48°01' W 005°15'1312.5
2015-Feb-28 19:33N 47°52' W 005°03'1412.6
2015-Feb-28 18:29N 47°42' W 004°50'7312.3
2015-Feb-28 12:34N 46°47' W 003°39'2411.9
2015-Feb-28 10:34N 46°29' W 003°16'  
2015-Feb-25 19:33N 47°01' W 003°59'1514.8
2015-Feb-25 18:34N 47°12' W 004°13'4314.4
2015-Feb-25 15:34N 47°45' W 004°56'1413.6
2015-Feb-25 14:33N 47°55' W 005°09'1514.8
2015-Feb-25 13:33N 48°06' W 005°24'1514.9
2015-Feb-25 12:33N 48°17' W 005°39'22311.2
2015-Feb-24 16:33N 49°34' W 000°20'1414.0
2015-Feb-24 15:33N 49°28' W 000°01'1211.8
2015-Feb-24 14:33N 49°26' E 000°17'10 9.6
2015-Feb-24 13:32N 49°28' E 000°32'5 0.1
2015-Feb-23 00:11N 49°28' E 000°40'5 8.2
2015-Feb-22 23:32N 49°29' E 000°32'1111.8
2015-Feb-22 22:33N 49°26' E 000°15'1010.2
2015-Feb-22 21:33N 49°28' W 000°01'6 6.3
2015-Feb-22 20:33N 49°29' W 000°10'1 0.5
2015-Feb-22 19:33N 49°30' W 000°11'0 0.1
2015-Feb-22 18:33N 49°29' W 000°11'0 0.0
2015-Feb-22 17:33N 49°29' W 000°11'0 0.0
2015-Feb-22 16:33N 49°29' W 000°11'0 0.1
2015-Feb-22 15:33N 49°30' W 000°11'0 0.1
2015-Feb-22 14:33N 49°30' W 000°11'0 0.1
2015-Feb-22 13:33N 49°29' W 000°11'0 0.0
2015-Feb-22 12:33N 49°29' W 000°11'0 0.0
2015-Feb-22 11:33N 49°29' W 000°11'0 0.0
2015-Feb-22 10:33N 49°29' W 000°11'0 0.1
2015-Feb-22 09:33N 49°29' W 000°11'0 0.1
2015-Feb-22 08:33N 49°29' W 000°11'0 0.1
2015-Feb-22 07:33N 49°29' W 000°11'0 0.1
2015-Feb-22 06:33N 49°29' W 000°11'0 0.1
2015-Feb-22 05:33N 49°29' W 000°11'0 0.0
2015-Feb-22 04:33N 49°29' W 000°11'0 0.0
2015-Feb-22 03:33N 49°29' W 000°11'0 0.1
2015-Feb-22 02:33N 49°29' W 000°11'0 0.1
2015-Feb-22 01:33N 49°29' W 000°11'0 0.1
2015-Feb-22 00:27N 49°29' W 000°11'0 0.0
2015-Feb-21 23:33N 49°29' W 000°11'0 0.0
2015-Feb-21 22:33N 49°29' W 000°11'0 0.1
2015-Feb-21 21:33N 49°29' W 000°11'0 0.1
2015-Feb-21 20:33N 49°29' W 000°11'0 0.1
2015-Feb-21 19:33N 49°29' W 000°11'0 0.1
2015-Feb-21 18:33N 49°29' W 000°11'0 0.0
2015-Feb-21 17:33N 49°29' W 000°11'0 0.0
2015-Feb-21 16:33N 49°29' W 000°11'0 0.0
2015-Feb-21 15:33N 49°29' W 000°11'0 0.1
2015-Feb-21 14:33N 49°29' W 000°11'0 0.1
2015-Feb-21 13:33N 49°29' W 000°11'0 0.1
2015-Feb-21 12:21N 49°29' W 000°11'0 0.1
2015-Feb-21 11:09N 49°29' W 000°11'0 0.0
2015-Feb-21 10:33N 49°29' W 000°11'0 0.0
2015-Feb-21 09:33N 49°29' W 000°11'0 0.1
2015-Feb-21 08:33N 49°29' W 000°11'0 0.1
2015-Feb-21 07:33N 49°29' W 000°11'0 0.1
2015-Feb-21 06:33N 49°29' W 000°11'0 0.0
2015-Feb-21 05:33N 49°29' W 000°11'0 0.0
2015-Feb-21 04:33N 49°29' W 000°11'0 0.0
2015-Feb-21 03:33N 49°29' W 000°11'0 0.1
2015-Feb-21 02:33N 49°29' W 000°11'8 8.5
2015-Feb-21 01:33N 49°36' W 000°19'1512.2
2015-Feb-21 00:17N 49°51' W 000°21'5211.1
2015-Feb-20 19:33N 50°33' E 000°27'1514.5
2015-Feb-20 18:30N 50°41' E 000°48'  

Dump ship's entire track history